McGill, Nevada
Current Conditions -  °F | °C
As of 6:53 AM on Friday 24 Oct 2014 (Local Time) from KELY Reporting Station
Clear Clear  
Wind Chill: 50°   Ceiling: Unl
Heat Index: 50°   Visibility: 10mi
Dew Point: 27°   Wind: 14mph
Humidity: 41%   Direction: 200°SSW
Pressure: 30.24"   Gusts: NA
Location:  39.4°N, 114.78°W
Report Text: KELY 241353Z AUTO 20012KT 10SM CLR 10/M03 A3024 RMK AO2 SLP176 T01001028
Loading
Personal Weather Stations






























Interactive Weather Map New forecast layout! Learn more

10-Day Weather Forecast

Advertisements
Track Severe Weather on mobile